Time;durP1;ratioP1;P1;durP2;ratioP2;P2;SDS_P1;SDS_P2;PMS_P1;PMS_P2;Temp;Humidity;BMP_temperature;BMP_pressure;BME280_temperature;BME280_humidity;BME280_pressure;Samples;Min_cycle;Max_cycle;Signal;HPM_P1;HPM_P2
2022/12/28 00:00:45;;;;;;;15.23;5.68;;;;;;;5.57;100.00;101274.13;5046075;28;20051;-72
2022/12/28 00:03:10;;;;;;;8.60;4.50;;;;;;;5.59;100.00;101272.50;5048561;28;20052;-71
2022/12/28 00:05:35;;;;;;;12.75;5.13;;;;;;;5.63;100.00;101269.19;5048259;28;20468;-71
2022/12/28 00:08:01;;;;;;;13.27;5.20;;;;;;;5.68;100.00;101262.47;5063597;28;20489;-72
2022/12/28 00:10:26;;;;;;;13.13;5.50;;;;;;;5.74;100.00;101262.69;5058085;28;20067;-72
2022/12/28 00:12:51;;;;;;;19.15;7.22;;;;;;;5.76;100.00;101252.31;5045604;28;20032;-72
2022/12/28 00:15:17;;;;;;;11.48;5.22;;;;;;;5.82;100.00;101252.59;5063873;28;20039;-72
2022/12/28 00:17:42;;;;;;;12.43;5.35;;;;;;;5.85;100.00;101224.00;5046458;28;20116;-72
2022/12/28 00:20:08;;;;;;;15.80;5.35;;;;;;;5.86;100.00;101235.31;5042563;28;20497;-72
2022/12/28 00:22:33;;;;;;;16.73;5.05;;;;;;;5.90;100.00;101218.94;5047062;28;20040;-72
2022/12/28 00:24:58;;;;;;;11.02;5.15;;;;;;;5.89;100.00;101222.41;5050551;28;20507;-72
2022/12/28 00:27:24;;;;;;;14.90;5.25;;;;;;;5.91;100.00;101207.69;5048552;28;20041;-73
2022/12/28 00:29:49;;;;;;;17.67;5.55;;;;;;;5.98;100.00;101199.31;5046865;28;20035;-72
2022/12/28 00:32:14;;;;;;;12.77;5.38;;;;;;;6.01;100.00;101204.66;5044286;28;20021;-72
2022/12/28 00:34:40;;;;;;;11.15;6.20;;;;;;;6.03;100.00;101204.72;5047172;28;20056;-72
2022/12/28 00:37:05;;;;;;;19.23;5.78;;;;;;;6.05;100.00;101206.56;5051200;28;20022;-72
2022/12/28 00:39:30;;;;;;;15.70;5.95;;;;;;;6.09;100.00;101197.16;5053900;28;20032;-72
2022/12/28 00:41:56;;;;;;;15.95;6.63;;;;;;;6.11;100.00;101181.53;5047771;28;20051;-72
2022/12/28 00:44:21;;;;;;;16.05;6.85;;;;;;;6.10;100.00;101178.00;5055270;28;20037;-70
2022/12/28 00:46:46;;;;;;;16.05;6.60;;;;;;;6.12;100.00;101167.59;5046976;28;20029;-72
2022/12/28 00:49:12;;;;;;;13.35;5.82;;;;;;;6.14;100.00;101168.56;5053117;28;20485;-72
2022/12/28 00:51:37;;;;;;;15.25;6.38;;;;;;;6.16;100.00;101182.56;5050184;28;20024;-72
2022/12/28 00:54:03;;;;;;;13.10;5.68;;;;;;;6.17;100.00;101195.72;5044388;28;20499;-72
2022/12/28 00:56:28;;;;;;;15.77;6.88;;;;;;;6.23;100.00;101174.16;5049667;28;20393;-72
2022/12/28 00:58:58;;;;;;;12.18;6.22;;;;;;;6.29;100.00;101169.16;5050714;28;20025;-71
2022/12/28 01:01:24;;;;;;;11.45;5.80;;;;;;;6.39;100.00;101181.78;5054814;28;20032;-71
2022/12/28 01:03:50;;;;;;;17.98;7.15;;;;;;;6.39;100.00;101155.63;5040304;28;20430;-71
2022/12/28 01:06:18;;;;;;;9.40;5.68;;;;;;;6.48;100.00;101143.75;5035319;28;20049;-71
2022/12/28 01:08:44;;;;;;;10.88;6.63;;;;;;;6.50;100.00;101142.97;5047244;28;20082;-73
2022/12/28 01:11:12;;;;;;;14.90;6.30;;;;;;;6.56;100.00;101151.03;5051797;28;20037;-72
2022/12/28 01:13:37;;;;;;;10.25;5.97;;;;;;;6.61;100.00;101143.38;5054558;28;20033;-72
2022/12/28 01:16:17;;;;;;;19.70;6.13;;;;;;;6.65;100.00;101131.31;5035921;28;20031;-71
2022/12/28 01:18:44;;;;;;;11.00;5.65;;;;;;;6.68;100.00;101132.31;5036648;28;20033;-72
2022/12/28 01:21:16;;;;;;;6.57;4.97;;;;;;;6.70;100.00;101112.34;5036367;28;20031;-71
2022/12/28 01:23:43;;;;;;;13.48;5.85;;;;;;;6.74;100.00;101148.25;5042573;28;20477;-73
2022/12/28 01:26:08;;;;;;;11.35;5.47;;;;;;;6.87;100.00;101122.53;5047919;28;20108;-72
2022/12/28 01:28:34;;;;;;;9.48;5.35;;;;;;;6.97;100.00;101122.00;5048862;28;20120;-72
2022/12/28 01:31:14;;;;;;;8.93;5.65;;;;;;;6.94;100.00;101114.06;5033190;28;20025;-72
2022/12/28 01:33:40;;;;;;;10.75;5.25;;;;;;;6.92;100.00;101121.84;5052876;28;20024;-71
2022/12/28 01:36:17;;;;;;;9.25;5.28;;;;;;;6.94;100.00;101116.69;5060797;28;20036;-72
2022/12/28 01:38:43;;;;;;;10.35;5.90;;;;;;;7.00;100.00;101087.22;5058149;28;20033;-70
2022/12/28 01:41:12;;;;;;;10.68;5.45;;;;;;;7.00;100.00;101103.81;5040278;28;20075;-72
2022/12/28 01:43:44;;;;;;;10.75;5.15;;;;;;;7.03;100.00;101098.69;5053475;28;20032;-71
2022/12/28 01:46:18;;;;;;;9.43;4.85;;;;;;;7.02;100.00;101086.44;5045364;28;20029;-72
2022/12/28 01:48:46;;;;;;;;;;;;;;;7.04;100.00;101079.53;5046152;28;20431;-72
2022/12/28 01:51:11;;;;;;;13.20;6.00;;;;;;;7.04;100.00;101079.53;5052767;28;19912;-71
2022/12/28 01:53:37;;;;;;;8.20;4.97;;;;;;;7.01;100.00;101087.31;5053574;28;20430;-71
2022/12/28 01:56:03;;;;;;;16.90;5.93;;;;;;;7.02;100.00;101091.66;5042742;28;20440;-72
2022/12/28 01:58:32;;;;;;;12.55;5.97;;;;;;;7.04;100.00;101084.78;5046945;28;20420;-72
2022/12/28 02:00:57;;;;;;;10.57;5.38;;;;;;;7.06;100.00;101087.44;5041636;28;20485;-71
2022/12/28 02:03:27;;;;;;;10.70;5.07;;;;;;;7.09;100.00;101051.81;5048215;28;20073;-71
2022/12/28 02:05:56;;;;;;;12.98;4.90;;;;;;;7.09;100.00;101085.84;5046825;28;20082;-72
2022/12/28 02:08:34;;;;;;;11.02;5.45;;;;;;;7.17;100.00;101069.50;5053667;28;20025;-72
2022/12/28 02:11:00;;;;;;;11.70;5.68;;;;;;;7.21;100.00;101072.25;5038099;28;20453;-71
2022/12/28 02:13:26;;;;;;;11.57;5.25;;;;;;;7.19;100.00;101054.72;5050892;28;20032;-71
2022/12/28 02:15:51;;;;;;;9.43;5.35;;;;;;;7.22;100.00;101060.09;5050022;28;20061;-73
2022/12/28 02:18:19;;;;;;;8.85;5.68;;;;;;;7.19;100.00;101053.00;5052635;28;20017;-71
2022/12/28 02:21:14;;;;;;;9.15;5.03;;;;;;;7.24;100.00;101054.06;5052463;28;20036;-72
2022/12/28 02:23:42;;;;;;;6.55;4.68;;;;;;;7.35;100.00;101045.66;5051257;28;20078;-72
2022/12/28 02:26:17;;;;;;;9.85;5.40;;;;;;;7.43;100.00;101034.63;5056637;28;20026;-72
2022/12/28 02:28:50;;;;;;;12.68;5.50;;;;;;;7.45;100.00;101041.59;5061586;28;20108;-72
2022/12/28 02:31:51;;;;;;;6.07;4.22;;;;;;;7.43;100.00;101024.16;5044615;28;20031;-72
2022/12/28 02:34:56;;;;;;;11.43;5.97;;;;;;;7.47;100.00;101034.72;5024583;28;20048;-73
2022/12/28 02:37:30;;;;;;;8.70;4.82;;;;;;;7.46;100.00;101043.41;5043146;28;20167;-71
2022/12/28 02:40:00;;;;;;;;;;;;;;;7.43;100.00;101039.84;5054789;28;20031;-73
2022/12/28 02:42:28;;;;;;;13.32;5.22;;;;;;;7.44;100.00;101032.88;5062670;28;19920;-72
2022/12/28 02:50:49;;;;;;;8.07;5.10;;;;;;;7.53;100.00;101006.13;5051132;28;20084;-72
2022/12/28 02:53:46;;;;;;;9.82;4.72;;;;;;;7.54;100.00;101015.72;5041323;28;20065;-72
2022/12/28 02:56:32;;;;;;;10.32;5.05;;;;;;;7.57;100.00;101018.47;5022162;28;20547;-72
2022/12/28 02:59:19;;;;;;;8.13;4.65;;;;;;;7.60;100.00;101034.25;5040919;28;20032;-72
2022/12/28 03:02:13;;;;;;;14.77;5.05;;;;;;;7.55;100.00;101012.28;5032730;28;20053;-72
2022/12/28 03:05:06;;;;;;;;;;;;;;;7.56;100.00;101016.69;5037862;28;20017;-72
2022/12/28 03:10:29;;;;;;;9.70;4.82;;;;;;;7.49;100.00;100989.41;5051112;28;20052;-72
2022/12/28 03:13:04;;;;;;;10.60;4.40;;;;;;;7.43;100.00;100997.97;5052722;28;20021;-71
2022/12/28 03:15:35;;;;;;;14.70;5.53;;;;;;;7.42;100.00;101005.78;5047269;28;20029;-72
2022/12/28 03:32:13;;;;;;;7.45;5.55;;;;;;;7.50;100.00;100999.03;5052552;28;20036;-72
2022/12/28 03:34:38;;;;;;;8.10;5.43;;;;;;;7.51;100.00;101003.41;5048421;28;20457;-72
2022/12/28 03:37:11;;;;;;;6.35;5.18;;;;;;;7.58;100.00;100988.78;5051544;28;20423;-72
2022/12/28 03:39:57;;;;;;;8.60;5.53;;;;;;;7.54;100.00;100994.78;5049748;28;20112;-72
2022/12/28 03:45:43;;;;;;;7.95;3.88;;;;;;;7.55;100.00;100988.69;5047545;28;20051;-72
2022/12/28 03:48:10;;;;;;;10.90;4.35;;;;;;;7.55;100.00;101001.78;5059355;28;20024;-71
2022/12/28 03:50:41;;;;;;;8.45;4.60;;;;;;;7.56;100.00;100985.25;5045528;28;20486;-70
2022/12/28 03:53:07;;;;;;;6.95;4.22;;;;;;;7.59;100.00;100994.06;5050904;28;20086;-71
2022/12/28 03:55:34;;;;;;;6.65;4.15;;;;;;;7.64;100.00;100986.38;5042391;28;20120;-70
2022/12/28 03:57:59;;;;;;;11.20;4.43;;;;;;;7.59;100.00;100978.34;5049125;28;20029;-71
2022/12/28 04:00:25;;;;;;;9.90;4.60;;;;;;;7.56;100.00;100974.78;5049752;28;20064;-71
2022/12/28 04:02:50;;;;;;;10.27;4.43;;;;;;;7.55;100.00;100967.75;5050507;28;20134;-72
2022/12/28 04:05:15;;;;;;;10.20;4.50;;;;;;;7.53;100.00;100958.97;5051714;28;20182;-72
2022/12/28 04:07:41;;;;;;;10.00;5.80;;;;;;;7.55;100.00;100978.22;5051114;28;20569;-72
2022/12/28 04:10:06;;;;;;;11.27;4.53;;;;;;;7.55;100.00;100946.81;5044151;28;20048;-72
2022/12/28 04:12:32;;;;;;;8.32;4.32;;;;;;;7.57;100.00;100971.31;5034538;28;20029;-71
2022/12/28 04:14:57;;;;;;;8.85;4.55;;;;;;;7.60;100.00;100971.41;5052338;28;20480;-71
2022/12/28 04:17:22;;;;;;;7.95;4.40;;;;;;;7.62;100.00;100954.00;5049744;28;20114;-72
2022/12/28 04:19:48;;;;;;;7.70;4.35;;;;;;;7.64;100.00;100951.41;5041044;28;20155;-73
2022/12/28 04:22:13;;;;;;;7.82;4.30;;;;;;;7.64;100.00;100962.81;5047195;28;20060;-71
2022/12/28 04:24:38;;;;;;;7.25;4.35;;;;;;;7.65;100.00;100948.88;5049883;28;20025;-72
2022/12/28 04:27:04;;;;;;;9.65;3.85;;;;;;;7.65;100.00;100954.13;5051272;28;20029;-72
2022/12/28 04:29:29;;;;;;;7.65;4.63;;;;;;;7.66;100.00;100949.75;5046857;28;20033;-72
2022/12/28 04:31:54;;;;;;;8.25;4.32;;;;;;;7.66;100.00;100953.25;5036138;28;20021;-72
2022/12/28 04:34:20;;;;;;;9.52;4.43;;;;;;;7.68;100.00;100943.72;5035521;28;20032;-72
2022/12/28 04:36:46;;;;;;;6.43;4.68;;;;;;;7.68;100.00;100942.84;5040136;28;20048;-71
2022/12/28 04:39:11;;;;;;;10.65;4.88;;;;;;;7.73;100.00;100935.97;5036141;28;20033;-73
2022/12/28 04:41:37;;;;;;;7.93;4.88;;;;;;;7.69;100.00;100935.03;5038614;28;20593;-73
2022/12/28 04:44:02;;;;;;;10.23;5.35;;;;;;;7.68;100.00;100917.53;5046344;28;20029;-72
2022/12/28 04:46:27;;;;;;;7.40;5.03;;;;;;;7.72;100.00;100924.63;5042991;28;20075;-71
2022/12/28 04:48:53;;;;;;;11.45;5.65;;;;;;;7.74;100.00;100922.94;5036525;28;20203;-72
2022/12/28 04:51:23;;;;;;;7.82;4.72;;;;;;;7.73;100.00;100915.03;5043039;28;20024;-71
2022/12/28 04:53:49;;;;;;;12.32;4.93;;;;;;;7.75;100.00;100924.72;5051413;28;20021;-71
2022/12/28 04:56:17;;;;;;;15.68;3.90;;;;;;;7.80;100.00;100921.34;5042376;28;20044;-71
2022/12/28 04:58:43;;;;;;;11.32;4.63;;;;;;;7.80;100.00;100927.50;5050345;28;20028;-72
2022/12/28 05:01:11;;;;;;;8.98;3.95;;;;;;;7.79;100.00;100935.31;5049298;28;20029;-73
2022/12/28 05:03:38;;;;;;;11.23;3.40;;;;;;;7.79;100.00;100920.47;5050095;28;20401;-72
2022/12/28 05:06:06;;;;;;;7.72;2.97;;;;;;;7.80;100.00;100897.75;5036328;28;20100;-73
2022/12/28 05:08:34;;;;;;;6.80;3.95;;;;;;;7.82;100.00;100906.56;5074812;28;20029;-72
2022/12/28 05:11:01;;;;;;;8.25;3.75;;;;;;;7.81;100.00;100903.03;5051477;28;20464;-71
2022/12/28 05:13:27;;;;;;;11.32;3.55;;;;;;;7.83;100.00;100918.84;5048957;28;20021;-73
2022/12/28 05:15:52;;;;;;;7.68;3.28;;;;;;;7.84;100.00;100913.63;5050227;28;20400;-72
2022/12/28 05:18:18;;;;;;;6.53;3.65;;;;;;;7.84;100.00;100907.47;5039732;28;20040;-72
2022/12/28 05:20:43;;;;;;;5.30;3.40;;;;;;;7.89;100.00;100916.38;5041897;28;20472;-73
2022/12/28 05:23:08;;;;;;;5.03;3.30;;;;;;;7.90;100.00;100892.81;5050358;28;20032;-73
2022/12/28 05:25:34;;;;;;;5.85;3.15;;;;;;;7.95;100.00;100898.22;5054705;28;20032;-72
2022/12/28 05:27:59;;;;;;;5.18;3.30;;;;;;;7.96;100.00;100886.88;5047280;28;20052;-71
2022/12/28 05:30:24;;;;;;;7.10;3.78;;;;;;;7.97;100.00;100901.75;5040855;28;20104;-72
2022/12/28 05:32:50;;;;;;;4.70;2.88;;;;;;;7.98;100.00;100898.28;5048883;28;20488;-72
2022/12/28 05:35:15;;;;;;;8.65;3.65;;;;;;;8.02;100.00;100900.16;5053654;28;20517;-72
2022/12/28 05:37:41;;;;;;;7.45;3.50;;;;;;;8.09;100.00;100894.22;5045754;28;20405;-71
2022/12/28 05:40:07;;;;;;;8.18;3.47;;;;;;;8.12;100.00;100890.81;5056907;28;20020;-73
2022/12/28 05:42:34;;;;;;;5.50;3.30;;;;;;;8.15;100.00;100888.25;5059655;28;20032;-72
2022/12/28 05:44:59;;;;;;;5.40;3.05;;;;;;;8.19;100.00;100923.31;5058037;28;20028;-72
2022/12/28 05:47:24;;;;;;;7.40;2.50;;;;;;;8.20;100.00;100894.50;5064291;28;20033;-70
2022/12/28 05:49:50;;;;;;;7.55;3.58;;;;;;;8.26;100.00;100891.16;5052822;28;20039;-72
2022/12/28 05:52:15;;;;;;;8.63;2.55;;;;;;;8.24;100.00;100898.13;5041687;28;20372;-73
2022/12/28 05:54:41;;;;;;;4.68;2.72;;;;;;;8.28;100.00;100881.63;5047426;28;20032;-72
2022/12/28 05:57:06;;;;;;;6.15;2.80;;;;;;;8.33;100.00;100887.88;5048371;28;20060;-72
2022/12/28 05:59:31;;;;;;;8.57;2.88;;;;;;;8.31;100.00;100894.81;5050477;28;20029;-71
2022/12/28 06:01:56;;;;;;;4.63;2.88;;;;;;;8.28;100.00;100892.13;5043270;28;20041;-72
2022/12/28 06:04:22;;;;;;;7.50;3.05;;;;;;;8.30;100.00;100887.78;5050349;28;20037;-73
2022/12/28 06:06:48;;;;;;;6.07;3.30;;;;;;;8.29;100.00;100893.91;5043178;28;20060;-71
2022/12/28 06:09:14;;;;;;;4.82;3.30;;;;;;;8.31;100.00;100881.69;5063581;28;20031;-72
2022/12/28 06:11:39;;;;;;;7.78;3.80;;;;;;;8.32;100.00;100882.59;5032888;28;20034;-72
2022/12/28 06:14:05;;;;;;;4.40;3.35;;;;;;;8.33;100.00;100892.22;5049866;28;20111;-72
2022/12/28 06:16:33;;;;;;;6.10;3.78;;;;;;;8.32;100.00;100880.84;5061690;28;20025;-71
2022/12/28 06:19:03;;;;;;;6.22;3.20;;;;;;;8.34;100.00;100883.50;5049041;28;20491;-72
2022/12/28 06:21:31;;;;;;;10.13;3.75;;;;;;;8.31;100.00;100883.44;5042385;28;20029;-72
2022/12/28 06:23:58;;;;;;;6.40;3.95;;;;;;;8.30;100.00;100879.03;5042513;28;20029;-73
2022/12/28 06:26:25;;;;;;;6.88;4.00;;;;;;;8.21;100.00;100872.72;5047085;28;20572;-73
2022/12/28 06:28:50;;;;;;;7.93;3.85;;;;;;;8.20;100.00;100888.41;5050241;28;20071;-72
2022/12/28 06:31:21;;;;;;;9.60;4.28;;;;;;;8.16;100.00;100871.69;5041702;28;20477;-72
2022/12/28 06:33:48;;;;;;;5.60;4.47;;;;;;;8.18;100.00;100872.63;5034224;28;20463;-72
2022/12/28 06:36:14;;;;;;;11.38;4.82;;;;;;;8.18;100.00;100866.47;5052684;28;20408;-72
2022/12/28 06:38:40;;;;;;;7.70;4.78;;;;;;;8.19;100.00;100870.88;5046078;28;20029;-72
2022/12/28 06:41:08;;;;;;;9.60;5.60;;;;;;;8.18;100.00;100872.63;5052850;28;20025;-72
2022/12/28 06:43:35;;;;;;;12.00;5.88;;;;;;;8.21;100.00;100872.72;5061310;28;20484;-71
2022/12/28 06:46:01;;;;;;;6.15;3.38;;;;;;;8.20;100.00;100876.16;5046049;28;20385;-72
2022/12/28 06:48:28;;;;;;;9.02;4.80;;;;;;;8.20;100.00;100875.28;5042670;28;20111;-73
2022/12/28 06:50:58;;;;;;;11.20;5.93;;;;;;;8.25;100.00;100863.19;5046372;28;20505;-73
2022/12/28 06:53:24;;;;;;;7.15;5.70;;;;;;;8.19;100.00;100865.66;5037359;28;20049;-72
2022/12/28 06:55:58;;;;;;;6.32;4.50;;;;;;;8.19;100.00;100863.03;5052454;28;20434;-72
2022/12/28 06:58:25;;;;;;;9.68;5.57;;;;;;;8.18;100.00;100851.66;5051479;28;20492;-73
2022/12/28 07:00:51;;;;;;;12.82;6.25;;;;;;;8.20;100.00;100856.94;5042171;28;20028;-70
2022/12/28 07:03:17;;;;;;;11.40;5.82;;;;;;;8.22;100.00;100855.22;5049053;28;20056;-71
2022/12/28 07:05:43;;;;;;;9.55;5.30;;;;;;;8.25;100.00;100847.47;5048053;28;20029;-72
2022/12/28 07:08:08;;;;;;;11.45;5.15;;;;;;;8.25;100.00;100863.19;5049057;28;20154;-71
2022/12/28 07:10:34;;;;;;;5.50;4.57;;;;;;;8.28;100.00;100843.19;5064597;28;20071;-72
2022/12/28 07:13:00;;;;;;;13.45;5.25;;;;;;;8.28;100.00;100840.56;5060843;28;20020;-71
2022/12/28 07:15:25;;;;;;;5.90;4.85;;;;;;;8.31;100.00;100845.00;5057964;28;20033;-72
2022/12/28 07:17:51;;;;;;;5.63;4.15;;;;;;;8.32;100.00;100852.03;5052985;28;20043;-72
2022/12/28 07:20:16;;;;;;;7.20;4.35;;;;;;;8.37;100.00;100878.34;5052342;28;20389;-72
2022/12/28 07:22:41;;;;;;;4.72;4.18;;;;;;;8.37;100.00;100836.38;5043067;28;20047;-72
2022/12/28 07:25:07;;;;;;;6.03;4.22;;;;;;;8.38;100.00;100846.94;5051788;28;20029;-72
2022/12/28 07:27:35;;;;;;;4.82;3.67;;;;;;;8.36;100.00;100845.13;5047726;28;20033;-72
2022/12/28 07:30:01;;;;;;;6.78;4.18;;;;;;;8.39;100.00;100856.56;5051323;28;20082;-73
2022/12/28 07:32:26;;;;;;;7.15;3.40;;;;;;;8.42;100.00;100847.91;5049940;28;20473;-73
2022/12/28 07:34:52;;;;;;;7.53;3.65;;;;;;;8.46;100.00;100851.53;5044357;28;20025;-73
2022/12/28 07:37:17;;;;;;;4.22;2.67;;;;;;;8.42;100.00;100846.19;5042084;28;20124;-70
2022/12/28 07:39:43;;;;;;;5.53;3.75;;;;;;;8.44;100.00;100851.47;5046853;28;20047;-72
2022/12/28 07:42:10;;;;;;;4.40;3.28;;;;;;;8.50;100.00;100850.75;5040503;28;21502;-72
2022/12/28 07:44:36;;;;;;;6.47;3.13;;;;;;;8.51;100.00;100857.78;5044572;28;20031;-72
2022/12/28 07:47:01;;;;;;;7.15;3.53;;;;;;;8.54;100.00;100860.47;5052085;28;20032;-71
2022/12/28 07:49:27;;;;;;;5.03;2.80;;;;;;;8.60;100.00;100871.13;5042653;28;20039;-72
2022/12/28 07:51:52;;;;;;;9.27;3.70;;;;;;;8.67;100.00;100859.94;5044570;28;20044;-72
2022/12/28 07:54:18;;;;;;;6.85;3.83;;;;;;;8.69;100.00;100847.72;5047284;28;20031;-71
2022/12/28 07:56:43;;;;;;;8.95;4.22;;;;;;;8.68;100.00;100855.56;5045905;28;20036;-72
2022/12/28 07:59:12;;;;;;;11.82;4.65;;;;;;;8.68;100.00;100859.09;5050756;28;20041;-70
2022/12/28 08:01:38;;;;;;;4.90;4.30;;;;;;;8.67;100.00;100864.25;5044681;28;20148;-71
2022/12/28 08:04:07;;;;;;;10.63;5.03;;;;;;;8.63;100.00;100850.22;5044923;28;20055;-70
2022/12/28 08:06:35;;;;;;;6.47;4.82;;;;;;;8.67;100.00;100852.06;5048837;28;20033;-72
2022/12/28 08:09:02;;;;;;;10.23;5.88;;;;;;;8.66;100.00;100865.13;5039010;28;20052;-72
2022/12/28 08:11:30;;;;;;;11.63;6.38;;;;;;;8.64;100.00;100841.50;5051711;28;20075;-71
2022/12/28 08:13:57;;;;;;;10.48;5.70;;;;;;;8.63;100.00;100839.72;5048331;28;20021;-73
2022/12/28 08:16:25;;;;;;;10.77;6.32;;;;;;;8.67;100.00;100857.31;5042674;28;20017;-71
2022/12/28 08:18:51;;;;;;;12.95;5.72;;;;;;;8.66;100.00;100850.28;5053803;28;20032;-72
2022/12/28 08:21:20;;;;;;;11.70;5.88;;;;;;;8.67;100.00;100851.16;5056743;28;20028;-72
2022/12/28 08:23:46;;;;;;;10.63;6.80;;;;;;;8.67;100.00;100857.31;5040427;28;20024;-71
2022/12/28 08:26:15;;;;;;;11.65;6.57;;;;;;;8.70;100.00;100852.13;5052525;28;20100;-71
2022/12/28 08:28:42;;;;;;;11.10;6.35;;;;;;;8.73;100.00;100848.69;5050798;28;20108;-78
2022/12/28 08:31:11;;;;;;;13.32;6.70;;;;;;;8.73;100.00;100835.56;5058945;28;20563;-73
2022/12/28 08:33:36;;;;;;;12.25;6.65;;;;;;;8.76;100.00;100856.63;5031168;28;20017;-72
2022/12/28 08:36:03;;;;;;;9.30;6.20;;;;;;;8.82;100.00;100834.88;5054677;28;20074;-72
2022/12/28 08:38:29;;;;;;;10.15;6.07;;;;;;;8.80;100.00;100840.09;5042020;28;20029;-73
2022/12/28 08:40:59;;;;;;;9.43;6.28;;;;;;;8.80;100.00;100836.59;5049392;28;20070;-73
2022/12/28 08:43:26;;;;;;;12.13;6.55;;;;;;;8.78;100.00;100845.31;5036204;28;20024;-73
2022/12/28 08:46:12;;;;;;;11.45;6.53;;;;;;;8.79;100.00;100840.97;5046982;28;20025;-74
2022/12/28 08:48:38;;;;;;;8.02;6.32;;;;;;;8.83;100.00;100836.66;5044888;28;20396;-72
2022/12/28 08:51:18;;;;;;;10.80;6.40;;;;;;;8.86;100.00;100870.88;5049519;28;20037;-72
2022/12/28 08:53:45;;;;;;;9.73;5.72;;;;;;;8.85;100.00;100835.00;5039281;28;20029;-73
2022/12/28 08:56:32;;;;;;;8.05;5.45;;;;;;;8.84;100.00;100838.44;5045074;28;20025;-72
2022/12/28 08:58:58;;;;;;;10.43;5.32;;;;;;;8.85;100.00;100843.72;5047411;28;20033;-72
2022/12/28 09:01:29;;;;;;;8.05;4.80;;;;;;;8.89;100.00;100836.84;5045176;28;20047;-73
2022/12/28 09:03:56;;;;;;;7.18;4.70;;;;;;;8.85;100.00;100843.72;5046770;28;20037;-71
2022/12/28 09:06:28;;;;;;;6.32;4.68;;;;;;;8.78;100.00;100832.19;5045311;28;20090;-73
2022/12/28 09:08:55;;;;;;;9.52;5.22;;;;;;;8.77;100.00;100825.19;5042151;28;20036;-71
2022/12/28 09:11:21;;;;;;;10.52;4.22;;;;;;;8.75;100.00;100819.03;5043599;28;20025;-72
2022/12/28 09:13:46;;;;;;;6.30;4.07;;;;;;;8.78;100.00;100839.19;5049576;28;20487;-71
2022/12/28 09:16:15;;;;;;;7.13;4.63;;;;;;;8.82;100.00;100813.91;5044727;28;20397;-73
2022/12/28 09:18:42;;;;;;;9.07;4.63;;;;;;;8.81;100.00;100830.50;5049177;28;20108;-73
2022/12/28 09:21:13;;;;;;;7.18;5.05;;;;;;;8.81;100.00;100817.41;5038821;28;20075;-71
2022/12/28 09:23:39;;;;;;;7.82;4.88;;;;;;;8.79;100.00;100833.09;5036945;28;20100;-72
2022/12/28 09:26:13;;;;;;;9.50;4.20;;;;;;;8.81;100.00;100820.03;5048510;28;20036;-72
2022/12/28 09:28:43;;;;;;;7.20;4.22;;;;;;;8.83;100.00;100834.03;5045581;28;20029;-72
2022/12/28 09:31:09;;;;;;;12.50;4.72;;;;;;;8.83;100.00;100820.94;5038292;28;20422;-72
2022/12/28 09:36:18;;;;;;;7.82;5.18;;;;;;;8.84;100.00;100827.97;5043418;28;20051;-73
2022/12/28 09:38:45;;;;;;;9.00;4.80;;;;;;;8.80;100.00;100819.13;5050322;28;20124;-72
2022/12/28 09:41:25;;;;;;;12.25;5.10;;;;;;;8.84;100.00;100822.72;5047828;28;20032;-72
2022/12/28 09:44:06;;;;;;;10.02;4.20;;;;;;;8.88;100.00;100814.06;5048293;28;20032;-71
2022/12/28 09:46:35;;;;;;;7.72;4.55;;;;;;;8.94;100.00;100824.72;5046898;28;20033;-73
2022/12/28 09:49:03;;;;;;;6.88;3.90;;;;;;;8.99;100.00;100823.03;5046861;28;20079;-72
2022/12/28 09:51:34;;;;;;;7.20;4.18;;;;;;;9.01;100.00;100830.97;5043243;28;20028;-72
2022/12/28 09:53:59;;;;;;;5.97;3.50;;;;;;;9.07;100.00;100831.97;5042619;28;20021;-71
2022/12/28 09:56:31;;;;;;;11.95;3.83;;;;;;;9.10;100.00;100821.56;5053527;28;20025;-72
2022/12/28 09:58:57;;;;;;;8.15;3.63;;;;;;;9.07;100.00;100826.72;5046882;28;20374;-71
2022/12/28 10:01:24;;;;;;;11.23;3.65;;;;;;;9.08;100.00;100818.00;5050163;28;20029;-73
2022/12/28 10:03:50;;;;;;;8.45;3.45;;;;;;;9.07;100.00;100816.22;5050542;28;20052;-73
2022/12/28 10:06:21;;;;;;;7.57;3.85;;;;;;;9.07;100.00;100808.34;5045960;28;20017;-73
2022/12/28 10:08:57;;;;;;;6.20;3.15;;;;;;;9.13;100.00;100811.97;5047941;28;20029;-72
2022/12/28 10:11:40;;;;;;;11.00;3.70;;;;;;;9.11;100.00;100812.84;5053119;28;20032;-72
2022/12/28 10:14:26;;;;;;;4.97;3.30;;;;;;;9.13;100.00;100814.59;5047879;28;20025;-72
2022/12/28 10:16:53;;;;;;;6.53;3.70;;;;;;;9.18;100.00;100808.59;5041163;28;20275;-72
2022/12/28 10:19:23;;;;;;;12.48;3.67;;;;;;;9.14;100.00;100811.13;5043508;28;20021;-71
2022/12/28 10:21:57;;;;;;;8.93;4.00;;;;;;;9.03;100.00;100810.88;5060629;28;20571;-72
2022/12/28 10:24:23;;;;;;;8.02;3.85;;;;;;;8.89;100.00;100810.59;5051452;28;20060;-72
2022/12/28 10:26:49;;;;;;;6.75;4.25;;;;;;;8.87;100.00;100807.03;5050273;28;20035;-72
2022/12/28 10:29:18;;;;;;;9.75;4.57;;;;;;;8.77;100.00;100806.81;5050776;28;20041;-72
2022/12/28 10:31:55;;;;;;;8.10;4.00;;;;;;;8.71;100.00;100817.19;5049108;28;20025;-72
2022/12/28 10:34:21;;;;;;;6.78;4.50;;;;;;;8.67;100.00;100802.22;5047744;28;20037;-72
2022/12/28 10:36:48;;;;;;;7.30;4.18;;;;;;;8.69;100.00;100818.88;5048797;28;20035;-72
2022/12/28 10:39:19;;;;;;;10.70;3.85;;;;;;;8.65;100.00;100816.16;5049543;28;20065;-72
2022/12/28 10:41:45;;;;;;;8.65;4.30;;;;;;;8.58;100.00;100800.25;5054840;28;20139;-71
2022/12/28 10:44:20;;;;;;;12.35;4.93;;;;;;;8.55;100.00;100801.94;5041292;28;20461;-71
2022/12/28 10:47:11;;;;;;;10.48;4.03;;;;;;;8.50;100.00;100812.28;5037187;28;20463;-71
2022/12/28 10:49:50;;;;;;;5.75;4.13;;;;;;;8.48;100.00;100785.16;5041309;28;20433;-74
2022/12/28 10:52:17;;;;;;;9.98;3.92;;;;;;;8.45;100.00;100787.72;5052733;28;20031;-72
2022/12/28 10:54:43;;;;;;;8.77;4.20;;;;;;;8.42;100.00;100778.00;5057547;28;20473;-72
2022/12/28 10:57:23;;;;;;;7.80;4.07;;;;;;;8.40;100.00;100790.16;5056580;28;20036;-72
2022/12/28 10:59:49;;;;;;;7.78;4.53;;;;;;;8.38;100.00;100777.88;5054042;28;20044;-72
2022/12/28 11:02:17;;;;;;;7.22;3.92;;;;;;;8.35;100.00;100776.06;5044180;28;20573;-73
2022/12/28 11:05:00;;;;;;;12.07;4.70;;;;;;;8.34;100.00;100784.78;5045226;28;20632;-72
2022/12/28 11:07:34;;;;;;;7.63;4.15;;;;;;;8.32;100.00;100770.75;5049293;28;20029;-72
2022/12/28 11:10:25;;;;;;;10.88;4.18;;;;;;;8.30;100.00;100761.94;5046032;28;20031;-72
2022/12/28 11:12:56;;;;;;;9.70;3.88;;;;;;;8.25;100.00;100763.59;5065271;28;20039;-72
2022/12/28 11:15:28;;;;;;;8.57;3.90;;;;;;;8.22;100.00;100776.59;5068135;28;20039;-72
2022/12/28 11:17:57;;;;;;;7.93;4.03;;;;;;;8.21;100.00;100751.25;5073381;28;20061;-71
2022/12/28 11:20:52;;;;;;;10.20;4.13;;;;;;;8.20;100.00;100762.59;5058102;28;20460;-71
2022/12/28 11:23:23;;;;;;;8.15;3.53;;;;;;;8.19;100.00;100739.84;5043059;28;20392;-70
2022/12/28 11:25:50;;;;;;;7.45;3.97;;;;;;;8.18;100.00;100756.41;5053069;28;20021;-72
2022/12/28 11:28:19;;;;;;;8.52;3.63;;;;;;;8.16;100.00;100748.50;5053061;28;20029;-72
2022/12/28 11:30:45;;;;;;;11.15;3.90;;;;;;;8.16;100.00;100748.50;5061554;28;20029;-71
2022/12/28 11:33:31;;;;;;;7.55;3.38;;;;;;;8.16;100.00;100747.63;5065300;28;20116;-72
2022/12/28 11:35:57;;;;;;;9.00;3.83;;;;;;;8.16;100.00;100747.63;5053717;28;20031;-72
2022/12/28 11:38:40;;;;;;;7.38;3.47;;;;;;;8.16;100.00;100738.03;5038583;28;20057;-73
2022/12/28 11:41:09;;;;;;;7.27;3.13;;;;;;;8.16;100.00;100737.16;5041761;28;20055;-75
2022/12/28 11:43:40;;;;;;;6.80;3.28;;;;;;;8.15;100.00;100741.47;5045306;28;20048;-72
2022/12/28 11:46:25;;;;;;;12.00;4.10;;;;;;;8.14;100.00;100736.22;5050290;28;20077;-74
2022/12/28 11:49:02;;;;;;;15.30;3.70;;;;;;;8.15;100.00;100736.25;5062444;28;20035;-73
2022/12/28 11:51:32;;;;;;;9.00;3.05;;;;;;;8.13;100.00;100731.84;5058169;28;20029;-73
2022/12/28 11:54:01;;;;;;;7.22;2.97;;;;;;;8.12;100.00;100720.44;5049627;28;20558;-74
2022/12/28 11:56:42;;;;;;;8.65;3.30;;;;;;;8.12;100.00;100714.34;5063515;28;20028;-74
2022/12/28 11:59:24;;;;;;;9.15;3.53;;;;;;;8.10;100.00;100707.31;5042850;28;20029;-74